createdAt,value
2018-09-05T00:01:17.587Z,46.00
2018-09-05T00:03:49.024Z,46.00
2018-09-05T00:06:19.623Z,45.25
2018-09-05T00:08:49.780Z,44.00
2018-09-05T00:11:19.227Z,43.50
2018-09-05T00:13:48.750Z,44.25
2018-09-05T00:16:19.187Z,43.00
2018-09-05T00:18:48.701Z,44.25
2018-09-05T00:21:21.152Z,45.00
2018-09-05T00:23:50.647Z,45.75
2018-09-05T00:29:10.767Z,47.00
2018-09-05T00:31:40.578Z,43.00
2018-09-05T00:34:09.989Z,44.25
2018-09-05T00:36:39.731Z,45.50
2018-09-05T00:39:10.075Z,44.25
2018-09-05T00:41:39.903Z,45.50
2018-09-05T00:44:09.787Z,43.75
2018-09-05T00:46:39.320Z,44.50
2018-09-05T00:49:08.851Z,43.75
2018-09-05T00:51:39.103Z,45.75
2018-09-05T00:54:08.452Z,43.75
2018-09-05T00:56:38.214Z,43.00
2018-09-05T00:59:07.800Z,43.00
2018-09-05T01:01:37.630Z,43.75
2018-09-05T01:04:07.467Z,43.00
2018-09-05T01:06:37.403Z,41.50
2018-09-05T01:09:08.932Z,41.50
2018-09-05T01:11:38.570Z,41.25
2018-09-05T01:14:08.930Z,41.00
2018-09-05T01:16:39.052Z,42.50
2018-09-05T01:19:08.570Z,44.75
2018-09-05T01:21:38.273Z,45.00
2018-09-05T01:24:08.219Z,46.00
2018-09-05T01:26:38.163Z,43.50
2018-09-05T01:29:08.177Z,44.75
2018-09-05T01:31:37.853Z,44.25
2018-09-05T01:34:07.653Z,48.75
2018-09-05T01:36:37.843Z,45.75
2018-09-05T01:39:08.759Z,45.25
2018-09-05T01:41:38.353Z,47.75
2018-09-05T01:44:10.083Z,44.50
2018-09-05T01:46:39.797Z,44.00
2018-09-05T01:49:10.293Z,46.50
2018-09-05T01:51:40.025Z,46.50
2018-09-05T01:54:09.827Z,45.25
2018-09-05T01:56:39.568Z,45.00
2018-09-05T01:59:08.863Z,45.25
2018-09-05T02:01:38.744Z,45.75
2018-09-05T02:04:08.306Z,45.25
2018-09-05T02:06:37.873Z,46.00
2018-09-05T02:09:10.136Z,48.00
2018-09-05T02:11:39.644Z,43.75
2018-09-05T02:14:15.014Z,43.75
2018-09-05T02:16:45.489Z,44.50
2018-09-05T02:19:15.519Z,45.50
2018-09-05T02:22:12.497Z,43.00
2018-09-05T02:24:42.000Z,45.50
2018-09-05T02:27:12.017Z,46.25
2018-09-05T02:29:43.261Z,46.75
2018-09-05T02:32:15.835Z,45.00
2018-09-05T02:34:46.912Z,44.25
2018-09-05T02:37:16.394Z,44.50
2018-09-05T02:39:45.983Z,47.50
2018-09-05T02:42:24.177Z,46.50
2018-09-05T02:44:54.154Z,45.50
2018-09-05T02:47:24.689Z,46.00
2018-09-05T02:49:54.097Z,46.50
2018-09-05T02:52:23.575Z,47.25
2018-09-05T02:54:53.400Z,47.25
2018-09-05T02:57:22.752Z,47.50
2018-09-05T02:59:52.226Z,47.75
2018-09-05T03:02:22.501Z,44.75
2018-09-05T03:04:53.017Z,49.00
2018-09-05T03:07:24.972Z,47.00
2018-09-05T03:09:54.709Z,45.25
2018-09-05T03:12:24.717Z,45.75
2018-09-05T03:14:54.434Z,43.75
2018-09-05T03:17:30.275Z,44.75
2018-09-05T03:20:09.454Z,45.75
2018-09-05T03:22:40.665Z,45.00
2018-09-05T03:25:13.047Z,46.25
2018-09-05T03:27:49.261Z,45.75
2018-09-05T03:30:19.025Z,46.25
2018-09-05T03:32:49.633Z,47.50
2018-09-05T03:35:19.296Z,47.00
2018-09-05T03:37:49.650Z,48.75
2018-09-05T03:40:19.960Z,44.50
2018-09-05T03:42:49.451Z,47.00
2018-09-05T03:45:19.722Z,46.75
2018-09-05T03:50:27.751Z,45.00
2018-09-05T03:52:57.372Z,48.00
2018-09-05T03:55:26.833Z,44.50
2018-09-05T03:57:57.392Z,45.00
2018-09-05T04:00:30.707Z,45.00
2018-09-05T04:03:00.956Z,45.75
2018-09-05T04:05:30.504Z,44.25
2018-09-05T04:08:08.275Z,45.00
2018-09-05T04:10:37.721Z,44.00
2018-09-05T04:13:07.698Z,44.50
2018-09-05T04:15:37.994Z,45.00
2018-09-05T04:18:08.006Z,45.00
2018-09-05T04:20:37.616Z,46.00
2018-09-05T04:23:07.644Z,44.75
2018-09-05T04:25:37.129Z,46.25
2018-09-05T04:28:06.670Z,47.00
2018-09-05T04:30:36.821Z,45.00
2018-09-05T04:33:06.262Z,45.50
2018-09-05T04:35:35.536Z,47.50
2018-09-05T04:38:05.621Z,44.75
2018-09-05T04:40:43.251Z,43.50
2018-09-05T04:43:13.632Z,45.00
2018-09-05T04:45:43.466Z,43.00
2018-09-05T04:48:13.122Z,44.50
2018-09-05T04:50:42.879Z,46.00
2018-09-05T04:53:12.921Z,44.50
2018-09-05T04:55:42.326Z,43.25
2018-09-05T04:58:12.108Z,43.00
2018-09-05T05:03:20.357Z,43.75
2018-09-05T05:05:49.876Z,42.00
2018-09-05T05:08:19.345Z,44.50
2018-09-05T05:10:49.034Z,42.75
2018-09-05T05:13:18.806Z,42.25
2018-09-05T05:15:51.578Z,40.50
2018-09-05T05:18:26.309Z,40.25
2018-09-05T05:20:58.556Z,43.50
2018-09-05T05:23:28.863Z,42.50
2018-09-05T05:26:02.370Z,41.00
2018-09-05T05:28:38.287Z,41.50
2018-09-05T05:31:10.020Z,41.00
2018-09-05T05:33:44.332Z,42.50
2018-09-05T05:36:13.847Z,41.25
2018-09-05T05:38:43.334Z,41.75
2018-09-05T05:41:12.825Z,41.75
2018-09-05T05:43:43.801Z,41.50
2018-09-05T05:46:21.143Z,41.00
2018-09-05T05:48:51.701Z,38.00
2018-09-05T05:51:21.179Z,43.00
2018-09-05T05:53:51.236Z,38.75
2018-09-05T05:56:20.722Z,40.75
2018-09-05T05:58:51.467Z,41.75
2018-09-05T06:03:49.054Z,41.50
2018-09-05T06:06:19.460Z,41.75
2018-09-05T06:08:56.738Z,42.75
2018-09-05T06:11:32.641Z,41.50
2018-09-05T06:14:04.591Z,41.25
2018-09-05T06:16:40.265Z,39.25
2018-09-05T06:19:11.616Z,40.25
2018-09-05T06:21:44.624Z,43.25
2018-09-05T06:24:17.878Z,41.75
2018-09-05T06:26:48.113Z,42.00
2018-09-05T06:29:19.422Z,46.00
2018-09-05T06:31:53.255Z,46.00
2018-09-05T06:34:24.563Z,44.75
2018-09-05T06:36:55.396Z,45.50
2018-09-05T06:39:30.805Z,44.00
2018-09-05T06:42:11.599Z,44.00
2018-09-05T06:44:45.167Z,45.50
2018-09-05T06:47:19.846Z,44.00
2018-09-05T06:49:51.641Z,41.75
2018-09-05T06:52:29.710Z,43.75
2018-09-05T06:58:13.757Z,44.00
2018-09-05T07:03:33.562Z,42.25
2018-09-05T07:06:04.841Z,41.00
2018-09-05T07:08:36.474Z,40.75
2018-09-05T07:11:06.038Z,40.75
2018-09-05T07:13:43.443Z,39.75
2018-09-05T07:16:15.741Z,40.50
2018-09-05T07:18:49.462Z,40.00
2018-09-05T07:21:20.312Z,42.25
2018-09-05T07:23:49.712Z,40.00
2018-09-05T07:26:19.217Z,42.50
2018-09-05T07:28:49.313Z,40.00
2018-09-05T07:31:19.338Z,42.50
2018-09-05T07:33:49.947Z,41.00
2018-09-05T07:36:19.961Z,42.25
2018-09-05T07:38:51.925Z,41.75
2018-09-05T07:41:40.704Z,42.75
2018-09-05T07:44:16.902Z,42.00
2018-09-05T07:46:47.391Z,43.25
2018-09-05T07:49:16.826Z,44.00
2018-09-05T07:51:46.285Z,41.75
2018-09-05T07:54:16.619Z,42.00
2018-09-05T07:56:47.244Z,41.75
2018-09-05T07:59:16.942Z,43.00
2018-09-05T08:01:48.935Z,43.50
2018-09-05T08:04:25.935Z,43.25
2018-09-05T08:07:00.199Z,43.25
2018-09-05T08:09:29.831Z,43.25
2018-09-05T08:11:59.539Z,43.50
2018-09-05T08:14:31.025Z,42.75
2018-09-05T08:17:05.503Z,43.50
2018-09-05T08:19:40.781Z,43.50
2018-09-05T08:22:18.636Z,44.50
2018-09-05T08:24:52.134Z,41.50
2018-09-05T08:27:26.296Z,43.25
2018-09-05T08:30:21.084Z,43.00
2018-09-05T08:32:51.266Z,42.75
2018-09-05T08:35:21.365Z,42.25
2018-09-05T08:37:51.054Z,41.00
2018-09-05T08:40:23.631Z,40.00
2018-09-05T08:42:55.454Z,40.75
2018-09-05T08:45:25.763Z,43.00
2018-09-05T08:47:55.512Z,43.00
2018-09-05T08:50:27.808Z,41.50
2018-09-05T08:52:57.873Z,40.75
2018-09-05T08:55:28.883Z,42.25
2018-09-05T08:58:00.656Z,40.00
2018-09-05T09:00:35.444Z,40.00
2018-09-05T09:03:05.615Z,39.25
2018-09-05T09:05:43.760Z,37.75
2018-09-05T09:08:18.544Z,37.75
2018-09-05T09:10:59.347Z,38.25
2018-09-05T09:13:33.208Z,37.25
2018-09-05T09:16:06.376Z,38.00
2018-09-05T09:18:36.936Z,38.25
2018-09-05T09:21:09.940Z,34.75
2018-09-05T09:23:40.026Z,37.25
2018-09-05T09:26:16.299Z,37.00
2018-09-05T09:28:45.711Z,33.75
2018-09-05T09:31:16.367Z,34.75
2018-09-05T09:33:46.574Z,34.75
2018-09-05T09:36:18.869Z,34.00
2018-09-05T09:38:56.164Z,34.00
2018-09-05T09:41:28.096Z,35.00
2018-09-05T09:43:57.945Z,34.75
2018-09-05T09:46:28.491Z,34.75
2018-09-05T09:48:57.903Z,34.00
2018-09-05T09:51:28.212Z,35.50
2018-09-05T09:53:57.873Z,34.50
2018-09-05T09:56:31.435Z,33.00
2018-09-05T09:59:01.387Z,33.00
2018-09-05T10:01:36.992Z,31.75
2018-09-05T10:04:14.648Z,31.75
2018-09-05T10:06:52.912Z,30.50
2018-09-05T10:09:27.932Z,32.00
2018-09-05T10:12:02.733Z,30.75
2018-09-05T10:14:35.193Z,31.00
2018-09-05T10:17:13.470Z,32.00
2018-09-05T10:20:03.681Z,30.25
2018-09-05T10:22:41.279Z,31.00
2018-09-05T10:25:12.028Z,29.75
2018-09-05T10:27:41.535Z,31.00
2018-09-05T10:30:19.202Z,31.75
2018-09-05T10:32:51.518Z,30.00
2018-09-05T10:35:22.563Z,30.75
2018-09-05T10:40:56.462Z,31.50
2018-09-05T10:43:27.881Z,32.00
2018-09-05T10:46:00.272Z,29.25
2018-09-05T10:48:30.950Z,30.00
2018-09-05T10:51:00.257Z,30.50
2018-09-05T10:53:29.909Z,28.25
2018-09-05T10:55:59.432Z,29.75
2018-09-05T10:58:30.306Z,28.50
2018-09-05T11:01:00.056Z,29.25
2018-09-05T11:03:30.723Z,28.50
2018-09-05T11:06:01.457Z,29.25
2018-09-05T11:08:33.031Z,28.25
2018-09-05T11:11:05.540Z,27.25
2018-09-05T11:13:37.363Z,27.50
2018-09-05T11:16:08.807Z,28.00
2018-09-05T11:18:39.541Z,28.25
2018-09-05T11:21:09.843Z,27.50
2018-09-05T11:23:39.960Z,28.50
2018-09-05T11:26:11.986Z,28.50
2018-09-05T11:28:42.987Z,27.75
2018-09-05T11:31:14.302Z,28.25
2018-09-05T11:33:44.565Z,27.75
2018-09-05T11:36:20.665Z,28.25
2018-09-05T11:39:01.890Z,25.25
2018-09-05T11:41:33.702Z,28.75
2018-09-05T11:44:14.905Z,29.00
2018-09-05T11:46:47.074Z,27.75
2018-09-05T11:49:18.308Z,26.00
2018-09-05T11:51:49.404Z,29.25
2018-09-05T11:54:26.486Z,26.50
2018-09-05T11:56:56.314Z,25.25
2018-09-05T11:59:25.762Z,28.00
2018-09-05T12:02:03.857Z,28.00
2018-09-05T12:04:34.217Z,24.00
2018-09-05T12:07:05.053Z,29.50
2018-09-05T12:09:36.492Z,30.25
2018-09-05T12:12:07.030Z,30.25
2018-09-05T12:14:36.512Z,35.00
2018-09-05T12:17:06.582Z,33.75
2018-09-05T12:19:37.230Z,29.75
2018-09-05T12:22:09.588Z,30.75
2018-09-05T12:24:39.899Z,32.00
2018-09-05T12:27:10.407Z,33.50
2018-09-05T12:29:53.045Z,33.50
2018-09-05T12:32:28.460Z,30.25
2018-09-05T12:34:59.290Z,30.25
2018-09-05T12:37:29.715Z,31.00
2018-09-05T12:40:00.122Z,30.00
2018-09-05T12:42:30.433Z,32.00
2018-09-05T12:45:00.651Z,31.25
2018-09-05T12:47:31.597Z,33.25
2018-09-05T12:50:04.982Z,30.75
2018-09-05T12:52:36.329Z,34.25
2018-09-05T12:55:09.011Z,32.50
2018-09-05T12:57:43.104Z,30.75
2018-09-05T13:00:19.970Z,34.50
2018-09-05T13:02:49.879Z,32.00
2018-09-05T13:05:20.776Z,31.00
2018-09-05T13:07:51.444Z,32.75
2018-09-05T13:10:21.845Z,30.25
2018-09-05T13:12:54.588Z,31.50
2018-09-05T13:15:38.697Z,32.75
2018-09-05T13:21:09.710Z,30.75
2018-09-05T13:23:40.239Z,30.25
2018-09-05T13:26:12.728Z,30.25
2018-09-05T13:28:44.506Z,31.25
2018-09-05T13:31:17.248Z,33.25
2018-09-05T13:33:49.279Z,30.75
2018-09-05T13:36:25.344Z,30.25
2018-09-05T13:38:55.740Z,31.75
2018-09-05T13:41:39.210Z,30.00
2018-09-05T13:44:09.820Z,30.25
2018-09-05T13:46:48.929Z,30.00
2018-09-05T13:49:25.406Z,31.25
2018-09-05T13:51:59.881Z,30.25
2018-09-05T13:54:30.320Z,31.25
2018-09-05T13:57:03.869Z,30.50
2018-09-05T13:59:36.205Z,30.75
2018-09-05T14:02:07.557Z,32.25
2018-09-05T14:04:42.009Z,30.25
2018-09-05T14:07:12.023Z,30.50
2018-09-05T14:09:43.391Z,32.25
2018-09-05T14:12:16.799Z,31.50
2018-09-05T14:17:26.500Z,29.00
2018-09-05T14:20:07.143Z,28.75
2018-09-05T14:22:41.655Z,28.25
2018-09-05T14:25:15.747Z,30.25
2018-09-05T14:27:49.858Z,28.25
2018-09-05T14:30:37.771Z,30.25
2018-09-05T14:33:09.575Z,32.00
2018-09-05T14:35:46.094Z,30.25
2018-09-05T14:38:23.481Z,30.00
2018-09-05T14:41:01.530Z,29.75
2018-09-05T14:43:35.409Z,30.75
2018-09-05T14:46:21.893Z,29.50
2018-09-05T14:48:55.952Z,27.25
2018-09-05T14:51:29.951Z,29.00
2018-09-05T14:54:11.189Z,29.00
2018-09-05T14:56:47.714Z,28.00
2018-09-05T14:59:19.227Z,26.25
2018-09-05T15:01:51.571Z,29.00
2018-09-05T15:04:24.821Z,28.75
2018-09-05T15:11:54.885Z,27.00
2018-09-05T15:14:24.572Z,31.00
2018-09-05T15:16:55.007Z,28.25
2018-09-05T15:19:24.680Z,27.75
2018-09-05T15:24:45.354Z,29.00
2018-09-05T15:27:18.049Z,30.25
2018-09-05T15:29:50.041Z,30.50
2018-09-05T15:32:23.461Z,33.50
2018-09-05T15:34:54.592Z,30.25
2018-09-05T15:37:35.308Z,32.25
2018-09-05T15:40:13.638Z,31.25
2018-09-05T15:42:43.555Z,31.00
2018-09-05T15:45:23.225Z,32.25
2018-09-05T15:47:54.330Z,32.25
2018-09-05T15:50:25.735Z,34.00
2018-09-05T15:52:57.785Z,32.00
2018-09-05T15:55:35.126Z,31.25
2018-09-05T15:58:07.233Z,30.25
2018-09-05T16:00:43.355Z,32.00
2018-09-05T16:08:48.490Z,30.50
2018-09-05T16:11:19.760Z,32.00
2018-09-05T16:13:51.790Z,29.75
2018-09-05T16:16:29.702Z,30.25
2018-09-05T16:19:05.151Z,31.00
2018-09-05T16:21:38.467Z,29.50
2018-09-05T16:24:10.190Z,29.25
2018-09-05T16:26:40.312Z,31.00
2018-09-05T16:29:11.576Z,27.50
2018-09-05T16:31:43.068Z,31.00
2018-09-05T16:34:13.718Z,30.50
2018-09-05T16:36:46.796Z,28.75
2018-09-05T16:39:25.186Z,29.00
2018-09-05T16:41:56.517Z,40.75
2018-09-05T16:44:26.253Z,27.75
2018-09-05T16:46:59.471Z,29.00
2018-09-05T16:49:34.571Z,27.50
2018-09-05T16:52:14.343Z,29.75
2018-09-05T16:55:06.211Z,29.00
2018-09-05T16:57:37.768Z,29.00
2018-09-05T17:00:23.623Z,29.00
2018-09-05T17:02:58.894Z,26.75
2018-09-05T17:05:44.996Z,28.00
2018-09-05T17:08:17.900Z,27.25
2018-09-05T17:10:48.091Z,29.25
2018-09-05T17:13:21.641Z,27.50
2018-09-05T17:15:52.654Z,25.75
2018-09-05T17:18:22.157Z,25.00
2018-09-05T17:20:57.492Z,25.00
2018-09-05T17:23:32.462Z,26.00
2018-09-05T17:26:03.434Z,25.25
2018-09-05T17:28:40.364Z,29.00
2018-09-05T17:31:12.588Z,25.00
2018-09-05T17:33:49.838Z,26.50
2018-09-05T17:36:21.053Z,28.50
2018-09-05T17:41:28.621Z,24.75
2018-09-05T17:44:00.219Z,27.25
2018-09-05T17:46:31.936Z,25.00
2018-09-05T17:49:03.673Z,24.75
2018-09-05T17:51:33.407Z,25.50
2018-09-05T17:54:09.249Z,25.25
2018-09-05T17:56:41.532Z,24.00
2018-09-05T17:59:32.812Z,25.50
2018-09-05T18:02:17.537Z,23.75
2018-09-05T18:09:55.467Z,24.50
2018-09-05T18:12:28.413Z,23.00
2018-09-05T18:15:06.780Z,24.25
2018-09-05T18:17:54.561Z,25.25
2018-09-05T18:20:32.556Z,22.75
2018-09-05T18:23:06.507Z,24.75
2018-09-05T18:25:42.842Z,27.00
2018-09-05T18:28:24.617Z,26.00
2018-09-05T18:31:10.782Z,25.75
2018-09-05T18:33:40.634Z,26.75
2018-09-05T18:44:23.209Z,22.00
2018-09-05T18:46:56.600Z,22.50
2018-09-05T18:49:33.016Z,22.00
2018-09-05T18:52:09.353Z,22.50
2018-09-05T18:54:49.314Z,22.00
2018-09-05T18:57:20.526Z,23.75
2018-09-05T18:59:59.626Z,21.25
2018-09-05T19:02:48.538Z,25.00
2018-09-05T19:05:18.474Z,24.25
2018-09-05T19:07:50.904Z,25.50
2018-09-05T19:10:29.163Z,22.75
2018-09-05T19:13:00.486Z,21.75
2018-09-05T19:15:39.062Z,21.75
2018-09-05T19:18:41.091Z,22.25
2018-09-05T19:21:15.609Z,23.50
2018-09-05T19:23:48.472Z,22.75
2018-09-05T19:26:37.396Z,23.25
2018-09-05T19:29:25.335Z,22.50
2018-09-05T19:32:07.966Z,26.00
2018-09-05T19:34:48.894Z,24.75
2018-09-05T19:37:24.468Z,24.00
2018-09-05T19:40:03.031Z,24.75
2018-09-05T19:42:42.581Z,23.50
2018-09-05T19:48:08.618Z,28.25
2018-09-05T19:50:49.798Z,29.00
2018-09-05T19:53:24.329Z,28.00
2018-09-05T19:56:02.558Z,29.00
2018-09-05T19:58:49.005Z,26.50
2018-09-05T20:06:34.819Z,26.25
2018-09-05T20:09:09.458Z,29.25
2018-09-05T20:12:00.477Z,28.25
2018-09-05T20:17:20.125Z,29.50
2018-09-05T20:19:53.784Z,28.75
2018-09-05T20:22:25.518Z,27.50
2018-09-05T20:24:56.411Z,28.25
2018-09-05T20:30:20.498Z,26.00
2018-09-05T20:32:53.795Z,25.75
2018-09-05T20:35:25.279Z,25.75
2018-09-05T20:37:55.169Z,27.00
2018-09-05T20:40:26.852Z,26.25
2018-09-05T20:42:57.720Z,28.25
2018-09-05T20:45:33.709Z,29.00
2018-09-05T20:48:07.336Z,26.50
2018-09-05T20:50:39.895Z,29.50
2018-09-05T20:53:10.394Z,27.50
2018-09-05T20:55:42.462Z,28.00
2018-09-05T20:58:12.770Z,29.50
2018-09-05T21:00:42.891Z,29.50
2018-09-05T21:03:12.671Z,28.00
2018-09-05T21:05:43.395Z,25.75
2018-09-05T21:08:15.338Z,26.00
2018-09-05T21:10:46.890Z,28.50
2018-09-05T21:13:18.671Z,26.50
2018-09-05T21:15:54.353Z,29.25
2018-09-05T21:18:26.431Z,29.25
2018-09-05T21:21:02.033Z,26.25
2018-09-05T21:23:34.035Z,27.75
2018-09-05T21:26:04.422Z,29.25
2018-09-05T21:28:35.279Z,26.25
2018-09-05T21:31:07.349Z,26.25
2018-09-05T21:33:38.424Z,25.75
2018-09-05T21:36:11.117Z,23.50
2018-09-05T21:38:40.620Z,24.00
2018-09-05T21:41:12.165Z,26.00
2018-09-05T21:43:42.284Z,24.75
2018-09-05T21:46:25.132Z,26.00
2018-09-05T21:48:59.244Z,26.75
2018-09-05T21:51:30.696Z,24.75
2018-09-05T21:54:02.987Z,24.25
2018-09-05T21:56:32.468Z,20.00
2018-09-05T21:59:04.718Z,22.50
2018-09-05T22:01:34.484Z,24.75
2018-09-05T22:04:04.038Z,22.75
2018-09-05T22:06:33.362Z,23.00
2018-09-05T22:09:04.076Z,21.25
2018-09-05T22:11:33.412Z,22.50
2018-09-05T22:14:05.180Z,24.25
2018-09-05T22:16:37.576Z,25.75
2018-09-05T22:19:08.479Z,23.75
2018-09-05T22:21:38.262Z,25.00
2018-09-05T22:24:11.105Z,24.00
2018-09-05T22:26:41.549Z,22.50
2018-09-05T22:29:13.186Z,22.50
2018-09-05T22:31:45.207Z,25.00
2018-09-05T22:34:16.977Z,26.25
2018-09-05T22:37:02.821Z,28.50
2018-09-05T22:39:36.793Z,24.75
2018-09-05T22:42:14.207Z,23.75
2018-09-05T22:44:58.496Z,28.75
2018-09-05T22:47:43.859Z,25.25
2018-09-05T22:53:34.845Z,23.50
2018-09-05T22:59:19.163Z,25.50
2018-09-05T23:02:00.229Z,27.50
2018-09-05T23:04:57.209Z,26.00
2018-09-05T23:08:41.994Z,29.25
2018-09-05T23:11:23.989Z,30.00
2018-09-05T23:14:03.989Z,31.00
2018-09-05T23:16:44.868Z,30.75
2018-09-05T23:19:28.473Z,33.00
2018-09-05T23:21:59.037Z,35.00
2018-09-05T23:24:28.593Z,40.00
2018-09-05T23:26:58.063Z,43.00
2018-09-05T23:29:27.694Z,43.25
2018-09-05T23:31:58.333Z,43.75
2018-09-05T23:34:27.845Z,43.00
2018-09-05T23:36:57.693Z,41.50
2018-09-05T23:39:27.234Z,44.25
2018-09-05T23:41:56.724Z,44.50
2018-09-05T23:44:26.898Z,45.75
2018-09-05T23:46:56.431Z,46.75
2018-09-05T23:49:26.155Z,43.00
2018-09-05T23:51:56.335Z,44.75
2018-09-05T23:54:26.022Z,43.00
2018-09-05T23:56:55.529Z,47.00
2018-09-05T23:59:25.901Z,45.25
